Jorge Wilsterman International Airport
SLCB : now visible

Airfield :











YOU CAN JOIN US ON...

 
LOGIN :

Register | Disclaimer

   EN    FR    IT 

 









Legend :    VFR   Marginal VFR   IFR   Intensive IFR   Very Intensive IFR
Visi :
Ceiling :
>= 8 km
>= 3000ft
5 to 8 km
1000 to 3000 ft
1500m to 5 km
500 to 1000 ft
800 to 1500m
200 to 500 ft
< 800m
< 200 ft
Symbols :   Thunderstorms  Fog  Heavy snow  Heavy precipitations  Wind > 20 kt






- Airport Elevation : 8360 ft
- IATA code : CBB


SLCB - Jorge Wilsterman International

CURRENT METAR :
  • 070100Z 28006KT 9999 NSC 18/11 Q1021

EXPIRED METARs :
  • 070000Z 00000KT 9999 FEW033 SCT080 BKN200 20/08 Q1020
  • 062300Z 17005KT 9999 SCT033 BKN070 BKN200 21/09 Q1019

TAF TAF SLCB
Valid from the 07 at 00:00 until the 08 at 00:00 UTC


062200Z 0700/0724 24010KT 9999 FEW033 SCT070 TX29/0719Z TN14 /0711Z
BECMG 0704/0706 00000KT SCT027 BKN070
TEMPO 0709/0711 8000 RA
BECMG 0716/0718 28010KT FEW036 FEW040CB BKN070
TEMPO 0719/0721 12015KT VCTS



MET'MAP, your aeronautical weather chart ! - Copyright ORBIFLY December 2007 - Disclaimer

ORBIFLY MET'MAP TEAM :

Programming & Development : Alexandra Zaïnal
Concept & original design : Baudouin d'Aumeries
Assistance for programming : Marc-Olivier Méhu
Technical & hardware support : Manuel Goepfert

Contact : metmap@orbifly.com




SOURCES & CREDITS :

   NOAA       Earth
Advisory